createdAt,value
2018-03-14T00:00:07.417Z,98.40
2018-03-14T00:02:33.926Z,98.40
2018-03-14T00:05:01.131Z,98.40
2018-03-14T00:07:27.685Z,98.40
2018-03-14T00:09:54.144Z,98.40
2018-03-14T00:12:20.608Z,98.30
2018-03-14T00:14:47.065Z,98.40
2018-03-14T00:17:13.517Z,98.30
2018-03-14T00:19:40.072Z,98.30
2018-03-14T00:22:06.532Z,98.20
2018-03-14T00:24:32.986Z,98.30
2018-03-14T00:26:59.439Z,98.30
2018-03-14T00:29:25.888Z,98.40
2018-03-14T00:31:52.316Z,98.50
2018-03-14T00:34:19.524Z,98.70
2018-03-14T00:36:45.960Z,98.70
2018-03-14T00:39:13.168Z,98.70
2018-03-14T00:41:39.628Z,98.70
2018-03-14T00:44:06.882Z,98.90
2018-03-14T00:46:33.327Z,98.90
2018-03-14T00:48:59.818Z,98.90
2018-03-14T00:51:26.306Z,99.00
2018-03-14T00:53:52.725Z,99.10
2018-03-14T00:56:19.210Z,99.30
2018-03-14T00:58:46.366Z,99.50
2018-03-14T01:01:12.824Z,99.10
2018-03-14T01:03:39.249Z,99.10
2018-03-14T01:06:05.684Z,99.20
2018-03-14T01:08:32.838Z,99.20
2018-03-14T01:11:00.030Z,99.00
2018-03-14T01:13:26.499Z,99.00
2018-03-14T01:15:53.583Z,98.80
2018-03-14T01:18:20.042Z,98.80
2018-03-14T01:20:46.466Z,98.70
2018-03-14T01:23:12.942Z,98.50
2018-03-14T01:25:39.403Z,98.50
2018-03-14T01:28:05.854Z,98.50
2018-03-14T01:30:32.371Z,98.40
2018-03-14T01:32:58.871Z,98.40
2018-03-14T01:35:25.345Z,98.50
2018-03-14T01:37:51.819Z,98.50
2018-03-14T01:40:18.840Z,98.60
2018-03-14T01:42:45.306Z,98.50
2018-03-14T01:45:11.742Z,98.50
2018-03-14T01:47:38.194Z,98.50
2018-03-14T01:50:05.499Z,98.40
2018-03-14T01:52:31.963Z,98.30
2018-03-14T01:54:59.332Z,98.30
2018-03-14T01:57:25.889Z,98.30
2018-03-14T01:59:52.347Z,98.20
2018-03-14T02:02:18.824Z,98.20
2018-03-14T02:04:45.280Z,98.20
2018-03-14T02:07:11.717Z,98.10
2018-03-14T02:09:38.283Z,98.20
2018-03-14T02:12:04.751Z,98.30
2018-03-14T02:14:31.219Z,98.30
2018-03-14T02:16:57.673Z,98.20
2018-03-14T02:19:24.146Z,98.20
2018-03-14T02:21:50.629Z,98.20
2018-03-14T02:24:19.835Z,98.20
2018-03-14T02:26:47.028Z,98.30
2018-03-14T02:29:14.229Z,98.20
2018-03-14T02:31:40.679Z,98.10
2018-03-14T02:34:07.111Z,98.20
2018-03-14T02:36:46.711Z,98.50
2018-03-14T02:39:13.178Z,98.50
2018-03-14T02:41:39.794Z,98.50
2018-03-14T02:44:06.240Z,98.50
2018-03-14T02:46:32.708Z,98.50
2018-03-14T02:48:59.934Z,98.70
2018-03-14T02:51:26.362Z,98.70
2018-03-14T02:53:52.804Z,98.70
2018-03-14T02:56:19.249Z,98.60
2018-03-14T02:58:46.414Z,98.40
2018-03-14T03:01:13.571Z,98.50
2018-03-14T03:03:40.728Z,98.50
2018-03-14T03:06:07.140Z,98.50
2018-03-14T03:08:33.602Z,98.60
2018-03-14T03:11:00.136Z,98.70
2018-03-14T03:13:26.694Z,98.80
2018-03-14T03:15:53.968Z,98.70
2018-03-14T03:18:21.141Z,98.70
2018-03-14T03:20:48.319Z,98.60
2018-03-14T03:23:14.743Z,98.60
2018-03-14T03:25:41.899Z,98.60
2018-03-14T03:28:08.398Z,98.60
2018-03-14T03:30:35.573Z,98.80
2018-03-14T03:33:02.026Z,98.80
2018-03-14T03:35:28.450Z,98.80
2018-03-14T03:37:54.835Z,98.80
2018-03-14T03:40:21.983Z,98.80
2018-03-14T03:42:48.397Z,98.80
2018-03-14T03:45:14.827Z,98.90
2018-03-14T03:47:41.377Z,98.80
2018-03-14T03:50:08.525Z,98.70
2018-03-14T03:52:35.006Z,98.70
2018-03-14T03:55:02.234Z,98.80
2018-03-14T03:57:28.672Z,98.80
2018-03-14T03:59:55.094Z,99.00
2018-03-14T04:02:21.505Z,98.90
2018-03-14T04:04:49.426Z,99.00
2018-03-14T04:07:16.563Z,99.20
2018-03-14T04:09:43.005Z,99.10
2018-03-14T04:12:09.494Z,99.10
2018-03-14T04:14:36.702Z,98.80
2018-03-14T04:17:03.858Z,98.70
2018-03-14T04:19:31.184Z,98.60
2018-03-14T04:21:57.600Z,98.60
2018-03-14T04:24:24.015Z,98.50
2018-03-14T04:26:50.607Z,98.40
2018-03-14T04:29:17.761Z,98.20
2018-03-14T04:31:44.237Z,98.20
2018-03-14T04:34:11.543Z,98.30
2018-03-14T04:36:37.969Z,98.30
2018-03-14T04:39:05.144Z,98.20
2018-03-14T04:41:35.489Z,98.10
2018-03-14T04:44:01.940Z,98.10
2018-03-14T04:46:29.093Z,98.60
2018-03-14T04:48:55.547Z,98.50
2018-03-14T04:51:22.743Z,98.90
2018-03-14T04:53:50.020Z,98.70
2018-03-14T04:56:16.452Z,98.60
2018-03-14T04:58:42.855Z,98.70
2018-03-14T05:01:09.339Z,99.00
2018-03-14T05:03:35.756Z,98.80
2018-03-14T05:06:02.295Z,98.70
2018-03-14T05:08:29.568Z,98.50
2018-03-14T05:10:56.758Z,98.60
2018-03-14T05:13:23.255Z,98.50
2018-03-14T05:15:49.760Z,98.90
2018-03-14T05:18:17.033Z,99.10
2018-03-14T05:20:44.202Z,98.90
2018-03-14T05:23:11.355Z,99.10
2018-03-14T05:25:37.765Z,99.10
2018-03-14T05:28:04.207Z,99.10
2018-03-14T05:30:30.711Z,99.20
2018-03-14T05:32:57.113Z,98.70
2018-03-14T05:35:24.449Z,98.70
2018-03-14T05:37:50.846Z,98.70
2018-03-14T05:40:17.397Z,98.60
2018-03-14T05:42:43.811Z,98.60
2018-03-14T05:45:10.242Z,98.50
2018-03-14T05:47:36.638Z,98.60
2018-03-14T05:50:03.117Z,98.50
2018-03-14T05:52:29.552Z,98.60
2018-03-14T05:54:56.744Z,99.40
2018-03-14T05:57:23.170Z,99.40
2018-03-14T05:59:49.653Z,99.50
2018-03-14T06:02:16.824Z,99.70
2018-03-14T06:04:43.980Z,99.70
2018-03-14T06:07:10.406Z,99.70
2018-03-14T06:09:36.824Z,99.90
2018-03-14T06:12:03.469Z,99.70
2018-03-14T06:14:30.030Z,99.60
2018-03-14T06:16:56.583Z,99.40
2018-03-14T06:19:26.859Z,99.40
2018-03-14T06:21:53.387Z,99.40
2018-03-14T06:24:19.809Z,99.40
2018-03-14T06:26:46.228Z,99.30
2018-03-14T06:29:12.754Z,99.30
2018-03-14T06:31:39.943Z,99.30
2018-03-14T06:34:07.111Z,99.40
2018-03-14T06:36:33.531Z,99.40
2018-03-14T06:39:00.803Z,99.50
2018-03-14T06:41:28.008Z,99.40
2018-03-14T06:43:54.561Z,99.40
2018-03-14T06:46:21.770Z,99.20
2018-03-14T06:48:48.204Z,99.10
2018-03-14T06:51:14.640Z,99.10
2018-03-14T06:53:41.826Z,99.10
2018-03-14T06:56:09.036Z,99.00
2018-03-14T06:58:48.489Z,99.00
2018-03-14T07:01:27.265Z,99.00
2018-03-14T07:04:07.016Z,98.80
2018-03-14T07:06:34.292Z,98.90
2018-03-14T07:09:00.712Z,98.90
2018-03-14T07:11:27.142Z,98.90
2018-03-14T07:13:53.716Z,98.90
2018-03-14T07:16:20.137Z,98.90
2018-03-14T07:18:46.581Z,98.90
2018-03-14T07:21:13.003Z,98.80
2018-03-14T07:23:39.433Z,98.60
2018-03-14T07:26:05.941Z,98.50
2018-03-14T07:28:33.142Z,98.50
2018-03-14T07:30:59.608Z,98.40
2018-03-14T07:33:26.006Z,98.50
2018-03-14T07:35:52.442Z,98.50
2018-03-14T07:38:18.941Z,98.40
2018-03-14T07:40:45.381Z,98.30
2018-03-14T07:43:12.539Z,98.20
2018-03-14T07:45:39.721Z,98.20
2018-03-14T07:48:06.944Z,98.70
2018-03-14T07:50:33.360Z,98.30
2018-03-14T07:53:00.500Z,98.40
2018-03-14T07:55:26.955Z,98.30
2018-03-14T07:57:53.401Z,98.20
2018-03-14T08:00:19.824Z,98.20
2018-03-14T08:02:46.273Z,98.30
2018-03-14T08:05:12.771Z,98.30
2018-03-14T08:07:39.429Z,98.30
2018-03-14T08:10:05.854Z,98.30
2018-03-14T08:12:32.290Z,98.30
2018-03-14T08:14:59.486Z,98.30
2018-03-14T08:17:25.888Z,98.30
2018-03-14T08:19:52.293Z,98.20
2018-03-14T08:22:18.731Z,98.60
2018-03-14T08:24:45.903Z,98.30
2018-03-14T08:27:13.035Z,98.50
2018-03-14T08:29:39.491Z,98.50
2018-03-14T08:32:06.668Z,98.30
2018-03-14T08:34:33.596Z,98.30
2018-03-14T08:37:00.028Z,98.10
2018-03-14T08:39:27.196Z,97.60
2018-03-14T08:41:54.354Z,97.60
2018-03-14T08:44:21.558Z,97.80
2018-03-14T08:46:48.001Z,97.80
2018-03-14T08:49:14.445Z,97.90
2018-03-14T08:51:41.611Z,97.80
2018-03-14T08:54:08.052Z,97.80
2018-03-14T08:56:34.554Z,97.80
2018-03-14T08:59:00.980Z,97.80
2018-03-14T09:01:27.419Z,97.80
2018-03-14T09:03:56.318Z,98.10
2018-03-14T09:06:22.743Z,98.00
2018-03-14T09:08:49.178Z,97.80
2018-03-14T09:11:15.614Z,98.10
2018-03-14T09:13:42.799Z,97.60
2018-03-14T09:16:09.997Z,97.60
2018-03-14T09:18:36.533Z,97.60
2018-03-14T09:21:03.692Z,97.20
2018-03-14T09:23:30.855Z,97.10
2018-03-14T09:25:58.088Z,96.90
2018-03-14T09:28:24.610Z,96.90
2018-03-14T09:30:51.886Z,97.00
2018-03-14T09:33:18.369Z,96.90
2018-03-14T09:35:44.777Z,97.10
2018-03-14T09:38:11.236Z,97.20
2018-03-14T09:40:38.414Z,97.70
2018-03-14T09:43:05.558Z,97.60
2018-03-14T09:45:33.588Z,97.60
2018-03-14T09:48:00.038Z,97.60
2018-03-14T09:50:27.419Z,97.30
2018-03-14T09:52:54.567Z,97.50
2018-03-14T09:55:20.968Z,97.50
2018-03-14T09:57:50.660Z,97.50
2018-03-14T10:00:17.949Z,97.30
2018-03-14T10:02:45.145Z,97.30
2018-03-14T10:05:11.570Z,97.30
2018-03-14T10:07:38.806Z,97.00
2018-03-14T10:10:05.366Z,96.90
2018-03-14T10:12:31.965Z,96.40
2018-03-14T10:14:59.241Z,96.60
2018-03-14T10:17:26.518Z,96.70
2018-03-14T10:19:53.692Z,96.80
2018-03-14T10:22:20.134Z,96.80
2018-03-14T10:24:47.421Z,97.00
2018-03-14T10:27:14.620Z,97.10
2018-03-14T10:29:41.255Z,97.10
2018-03-14T10:32:08.459Z,97.30
2018-03-14T10:34:34.942Z,97.20
2018-03-14T10:37:01.381Z,96.90
2018-03-14T10:39:27.770Z,96.90
2018-03-14T10:41:54.252Z,96.90
2018-03-14T10:44:20.750Z,96.30
2018-03-14T10:46:50.803Z,96.00
2018-03-14T10:49:17.488Z,95.40
2018-03-14T10:51:43.932Z,94.90
2018-03-14T10:54:10.420Z,94.90
2018-03-14T10:56:37.695Z,95.10
2018-03-14T10:59:04.357Z,95.10
2018-03-14T11:01:37.693Z,94.50
2018-03-14T11:04:04.158Z,94.40
2018-03-14T11:06:30.672Z,94.40
2018-03-14T11:08:57.854Z,93.70
2018-03-14T11:11:24.305Z,93.70
2018-03-14T11:13:51.580Z,93.50
2018-03-14T11:16:18.864Z,93.30
2018-03-14T11:18:45.316Z,93.30
2018-03-14T11:21:11.778Z,93.20
2018-03-14T11:23:38.913Z,93.00
2018-03-14T11:26:05.499Z,92.90
2018-03-14T11:28:32.665Z,93.10
2018-03-14T11:33:47.278Z,92.90
2018-03-14T11:36:13.702Z,93.00
2018-03-14T11:38:40.601Z,92.80
2018-03-14T11:41:07.044Z,93.30
2018-03-14T11:43:34.235Z,93.10
2018-03-14T11:46:00.635Z,93.10
2018-03-14T11:48:27.596Z,93.10
2018-03-14T11:50:54.034Z,93.30
2018-03-14T11:53:20.555Z,92.70
2018-03-14T11:55:46.990Z,92.60
2018-03-14T11:58:13.462Z,92.00
2018-03-14T12:00:40.876Z,92.40
2018-03-14T12:03:07.291Z,92.40
2018-03-14T12:05:34.463Z,92.50
2018-03-14T12:08:02.461Z,91.90
2018-03-14T12:10:28.901Z,91.90
2018-03-14T12:12:56.140Z,91.20
2018-03-14T12:15:22.646Z,91.20
2018-03-14T12:17:49.760Z,90.90
2018-03-14T12:20:16.217Z,90.90
2018-03-14T12:22:42.638Z,91.30
2018-03-14T12:25:09.787Z,91.40
2018-03-14T12:27:36.239Z,91.40
2018-03-14T12:30:03.472Z,90.90
2018-03-14T12:32:29.859Z,90.90
2018-03-14T12:34:56.274Z,90.50
2018-03-14T12:37:22.694Z,90.40
2018-03-14T12:39:49.140Z,90.70
2018-03-14T12:42:16.321Z,90.10
2018-03-14T12:44:42.736Z,90.10
2018-03-14T12:47:09.230Z,89.10
2018-03-14T12:49:36.406Z,88.90
2018-03-14T12:52:03.611Z,89.30
2018-03-14T12:54:30.143Z,89.20
2018-03-14T12:56:56.596Z,89.90
2018-03-14T12:59:23.050Z,90.10
2018-03-14T13:01:50.226Z,90.50
2018-03-14T13:04:17.434Z,90.60
2018-03-14T13:06:43.924Z,90.60
2018-03-14T13:09:10.373Z,90.90
2018-03-14T13:11:36.872Z,91.30
2018-03-14T13:14:03.529Z,91.50
2018-03-14T13:16:30.777Z,91.20
2018-03-14T13:18:57.293Z,91.20
2018-03-14T13:21:23.804Z,91.10
2018-03-14T13:23:51.220Z,91.50
2018-03-14T13:26:18.168Z,91.50
2018-03-14T13:28:44.736Z,91.80
2018-03-14T13:31:11.387Z,91.40
2018-03-14T13:33:37.857Z,91.30
2018-03-14T13:36:04.647Z,91.60
2018-03-14T13:38:31.470Z,92.10
2018-03-14T13:40:57.995Z,91.80
2018-03-14T13:43:24.444Z,91.80
2018-03-14T13:45:51.044Z,91.80
2018-03-14T13:48:18.419Z,91.70
2018-03-14T13:50:46.713Z,91.70
2018-03-14T13:53:13.932Z,91.80
2018-03-14T13:55:41.164Z,91.80
2018-03-14T13:58:08.874Z,92.20
2018-03-14T14:00:35.923Z,91.90
2018-03-14T14:03:02.435Z,91.80
2018-03-14T14:05:30.972Z,91.70
2018-03-14T14:07:58.255Z,92.00
2018-03-14T14:10:25.079Z,91.90
2018-03-14T14:12:51.539Z,92.20
2018-03-14T14:15:19.480Z,92.60
2018-03-14T14:17:46.123Z,92.90
2018-03-14T14:20:12.592Z,92.80
2018-03-14T14:22:39.051Z,92.90
2018-03-14T14:25:05.535Z,93.10
2018-03-14T14:27:32.049Z,93.10
2018-03-14T14:29:59.295Z,93.10
2018-03-14T14:32:25.729Z,93.10
2018-03-14T14:34:52.339Z,93.10
2018-03-14T14:37:19.613Z,93.10
2018-03-14T14:39:46.798Z,93.30
2018-03-14T14:42:13.974Z,92.70
2018-03-14T14:44:40.454Z,92.60
2018-03-14T14:47:06.934Z,92.30
2018-03-14T14:49:33.432Z,92.60
2018-03-14T14:51:59.887Z,92.70
2018-03-14T14:54:27.085Z,92.70
2018-03-14T14:56:53.521Z,92.70
2018-03-14T14:59:20.148Z,92.60
2018-03-14T15:01:46.566Z,92.40
2018-03-14T15:04:13.037Z,92.40
2018-03-14T15:06:40.359Z,92.50
2018-03-14T15:09:06.860Z,92.50
2018-03-14T15:11:33.293Z,92.50
2018-03-14T15:13:59.806Z,92.60
2018-03-14T15:16:27.014Z,92.80
2018-03-14T15:18:53.546Z,92.50
2018-03-14T15:21:21.622Z,92.20
2018-03-14T15:23:48.044Z,92.20
2018-03-14T15:26:14.468Z,92.40
2018-03-14T15:28:40.908Z,92.40
2018-03-14T15:31:07.380Z,92.40
2018-03-14T15:33:33.819Z,92.70
2018-03-14T15:36:01.063Z,91.90
2018-03-14T15:38:27.481Z,92.20
2018-03-14T15:40:54.021Z,92.20
2018-03-14T15:43:21.207Z,92.20
2018-03-14T15:45:47.768Z,92.20
2018-03-14T15:48:14.784Z,92.30
2018-03-14T15:50:41.278Z,92.50
2018-03-14T15:53:08.450Z,92.40
2018-03-14T15:55:35.730Z,92.20
2018-03-14T15:58:02.197Z,92.20
2018-03-14T16:00:28.605Z,92.10
2018-03-14T16:02:55.195Z,92.30
2018-03-14T16:05:26.462Z,92.40
2018-03-14T16:07:52.874Z,92.40
2018-03-14T16:10:19.474Z,92.50
2018-03-14T16:12:46.954Z,92.50
2018-03-14T16:15:13.517Z,92.80
2018-03-14T16:17:39.962Z,92.40
2018-03-14T16:20:07.248Z,92.40
2018-03-14T16:22:34.752Z,92.40
2018-03-14T16:25:01.208Z,92.60
2018-03-14T16:27:27.694Z,92.80
2018-03-14T16:29:54.160Z,92.90
2018-03-14T16:32:20.630Z,92.60
2018-03-14T16:34:47.212Z,92.50
2018-03-14T16:37:13.775Z,92.60
2018-03-14T16:39:40.326Z,92.70
2018-03-14T16:42:07.649Z,92.70
2018-03-14T16:44:34.079Z,92.70
2018-03-14T16:47:00.511Z,92.80
2018-03-14T16:49:27.789Z,92.70
2018-03-14T16:51:54.270Z,92.70
2018-03-14T16:54:20.772Z,92.90
2018-03-14T16:56:47.770Z,93.10
2018-03-14T16:59:14.267Z,93.20
2018-03-14T17:01:40.697Z,93.60
2018-03-14T17:04:07.158Z,93.40
2018-03-14T17:06:33.697Z,93.60
2018-03-14T17:09:00.882Z,93.60
2018-03-14T17:11:27.431Z,93.60
2018-03-14T17:13:53.881Z,93.70
2018-03-14T17:16:21.056Z,93.70
2018-03-14T17:18:47.468Z,93.70
2018-03-14T17:21:13.948Z,93.70
2018-03-14T17:23:40.369Z,93.70
2018-03-14T17:26:06.868Z,93.80
2018-03-14T17:28:33.363Z,93.90
2018-03-14T17:30:59.830Z,94.10
2018-03-14T17:33:26.353Z,94.20
2018-03-14T17:35:53.626Z,94.50
2018-03-14T17:38:20.820Z,94.70
2018-03-14T17:40:47.336Z,95.00
2018-03-14T17:43:13.783Z,94.80
2018-03-14T17:45:40.375Z,95.10
2018-03-14T17:48:07.665Z,95.50
2018-03-14T17:50:34.102Z,95.50
2018-03-14T17:53:01.302Z,95.40
2018-03-14T17:55:27.779Z,95.40
2018-03-14T17:57:54.215Z,95.50
2018-03-14T18:00:20.704Z,95.40
2018-03-14T18:02:47.177Z,95.50
2018-03-14T18:05:13.600Z,95.40
2018-03-14T18:07:40.096Z,95.50
2018-03-14T18:10:08.037Z,95.50
2018-03-14T18:12:34.564Z,95.50
2018-03-14T18:15:01.121Z,95.60
2018-03-14T18:17:28.319Z,95.80
2018-03-14T18:19:55.340Z,95.80
2018-03-14T18:22:22.579Z,96.00
2018-03-14T18:24:49.101Z,96.00
2018-03-14T18:27:15.652Z,96.10
2018-03-14T18:29:42.152Z,95.70
2018-03-14T18:32:08.669Z,95.70
2018-03-14T18:34:35.861Z,95.50
2018-03-14T18:37:02.391Z,95.50
2018-03-14T18:39:29.676Z,95.60
2018-03-14T18:41:56.229Z,95.60
2018-03-14T18:44:23.454Z,95.80
2018-03-14T18:46:49.920Z,95.80
2018-03-14T18:49:16.518Z,95.80
2018-03-14T18:51:44.210Z,95.80
2018-03-14T18:54:10.754Z,95.80
2018-03-14T18:56:38.769Z,95.70
2018-03-14T18:59:05.294Z,95.70
2018-03-14T19:01:32.526Z,95.80
2018-03-14T19:03:58.994Z,95.80
2018-03-14T19:06:25.475Z,95.40
2018-03-14T19:08:52.773Z,95.40
2018-03-14T19:11:19.641Z,95.40
2018-03-14T19:13:46.404Z,95.50
2018-03-14T19:16:12.972Z,95.40
2018-03-14T19:18:39.722Z,95.40
2018-03-14T19:21:06.790Z,95.40
2018-03-14T19:23:33.313Z,95.50
2018-03-14T19:26:00.539Z,95.70
2018-03-14T19:28:27.185Z,95.70
2018-03-14T19:30:53.844Z,95.70
2018-03-14T19:33:21.100Z,95.60
2018-03-14T19:35:49.116Z,95.70
2018-03-14T19:38:15.649Z,95.70
2018-03-14T19:40:42.959Z,96.00
2018-03-14T19:43:10.077Z,95.60
2018-03-14T19:45:36.791Z,95.70
2018-03-14T19:48:03.239Z,95.80
2018-03-14T19:50:29.999Z,95.80
2018-03-14T19:52:56.963Z,95.80
2018-03-14T19:55:24.443Z,95.90
2018-03-14T19:57:52.537Z,95.80
2018-03-14T20:00:19.167Z,96.10
2018-03-14T20:02:46.470Z,95.80
2018-03-14T20:05:13.747Z,95.50
2018-03-14T20:07:40.239Z,95.50
2018-03-14T20:10:06.789Z,95.50
2018-03-14T20:12:33.230Z,95.30
2018-03-14T20:14:59.623Z,95.30
2018-03-14T20:17:26.232Z,95.40
2018-03-14T20:19:53.626Z,95.10
2018-03-14T20:22:20.226Z,95.20
2018-03-14T20:24:46.663Z,95.10
2018-03-14T20:27:13.502Z,95.10
2018-03-14T20:29:39.957Z,95.00
2018-03-14T20:32:06.505Z,95.00
2018-03-14T20:34:32.977Z,94.70
2018-03-14T20:36:59.522Z,94.50
2018-03-14T20:39:25.970Z,94.70
2018-03-14T20:41:52.422Z,94.70
2018-03-14T20:44:19.634Z,94.70
2018-03-14T20:46:46.067Z,94.70
2018-03-14T20:49:12.529Z,94.80
2018-03-14T20:51:39.016Z,94.80
2018-03-14T20:54:06.177Z,94.80
2018-03-14T20:56:32.703Z,94.70
2018-03-14T20:59:00.086Z,94.60
2018-03-14T21:01:29.381Z,94.60
2018-03-14T21:03:56.703Z,94.30
2018-03-14T21:06:23.150Z,94.30
2018-03-14T21:08:49.595Z,94.20
2018-03-14T21:11:16.025Z,93.90
2018-03-14T21:13:42.462Z,93.60
2018-03-14T21:16:09.417Z,93.30
2018-03-14T21:18:35.919Z,93.20
2018-03-14T21:21:03.103Z,93.00
2018-03-14T21:23:29.525Z,93.00
2018-03-14T21:25:56.782Z,92.80
2018-03-14T21:28:23.194Z,92.80
2018-03-14T21:30:49.596Z,92.70
2018-03-14T21:33:16.683Z,93.40
2018-03-14T21:35:43.141Z,93.30
2018-03-14T21:38:09.586Z,93.50
2018-03-14T21:40:36.096Z,93.30
2018-03-14T21:43:02.596Z,93.40
2018-03-14T21:45:29.054Z,93.40
2018-03-14T21:47:55.538Z,93.40
2018-03-14T21:50:22.744Z,93.40
2018-03-14T21:52:49.163Z,93.40
2018-03-14T21:55:16.413Z,93.40
2018-03-14T21:57:42.849Z,93.30
2018-03-14T22:00:09.360Z,93.60
2018-03-14T22:02:36.528Z,93.70
2018-03-14T22:05:03.042Z,94.10
2018-03-14T22:07:29.520Z,93.80
2018-03-14T22:09:56.685Z,94.30
2018-03-14T22:12:23.117Z,94.30
2018-03-14T22:14:49.529Z,94.30
2018-03-14T22:17:16.699Z,94.20
2018-03-14T22:19:45.847Z,94.00
2018-03-14T22:22:12.340Z,94.00
2018-03-14T22:24:38.742Z,94.10
2018-03-14T22:27:05.148Z,94.10
2018-03-14T22:29:31.651Z,94.10
2018-03-14T22:31:58.120Z,94.10
2018-03-14T22:34:24.561Z,94.10
2018-03-14T22:36:51.013Z,94.10
2018-03-14T22:39:18.160Z,94.10
2018-03-14T22:41:44.767Z,94.10
2018-03-14T22:44:11.245Z,94.10
2018-03-14T22:46:37.756Z,94.00
2018-03-14T22:49:04.230Z,93.90
2018-03-14T22:51:31.210Z,94.00
2018-03-14T22:53:57.664Z,94.10
2018-03-14T22:56:24.195Z,94.00
2018-03-14T22:58:51.385Z,94.10
2018-03-14T23:01:17.839Z,94.00
2018-03-14T23:03:44.255Z,94.10
2018-03-14T23:06:10.692Z,94.10
2018-03-14T23:08:37.088Z,94.20
2018-03-14T23:11:03.545Z,94.30
2018-03-14T23:13:30.006Z,94.20
2018-03-14T23:15:56.459Z,94.20
2018-03-14T23:18:23.609Z,94.20
2018-03-14T23:20:50.035Z,94.20
2018-03-14T23:23:16.423Z,94.10
2018-03-14T23:25:42.899Z,94.10
2018-03-14T23:28:10.071Z,94.00
2018-03-14T23:30:36.631Z,94.00
2018-03-14T23:33:03.068Z,94.00
2018-03-14T23:35:29.473Z,93.90
2018-03-14T23:37:55.913Z,93.80
2018-03-14T23:40:22.301Z,93.60
2018-03-14T23:42:48.719Z,93.80
2018-03-14T23:45:15.162Z,93.70
2018-03-14T23:47:42.311Z,93.70
2018-03-14T23:50:09.473Z,93.60
2018-03-14T23:52:35.881Z,93.60
2018-03-14T23:55:02.402Z,93.60
2018-03-14T23:57:28.794Z,93.50
2018-03-14T23:59:55.332Z,93.60
